sensor_id;sensor_type;location;lat;lon;timestamp;temperature;humidity
45343;DHT22;31077;50.872;4.352;2022-11-20T00:02:25;24.60;35.20
45343;DHT22;31077;50.872;4.352;2022-11-20T00:04:51;24.60;35.50
45343;DHT22;31077;50.872;4.352;2022-11-20T00:07:17;24.60;35.50
45343;DHT22;31077;50.872;4.352;2022-11-20T00:09:43;24.60;35.60
45343;DHT22;31077;50.872;4.352;2022-11-20T00:12:09;24.50;35.50
45343;DHT22;31077;50.872;4.352;2022-11-20T00:14:34;24.50;35.60
45343;DHT22;31077;50.872;4.352;2022-11-20T00:17:00;24.60;35.70
45343;DHT22;31077;50.872;4.352;2022-11-20T00:19:26;24.60;35.70
45343;DHT22;31077;50.872;4.352;2022-11-20T00:21:52;24.50;35.70
45343;DHT22;31077;50.872;4.352;2022-11-20T00:24:19;24.60;35.70
45343;DHT22;31077;50.872;4.352;2022-11-20T00:26:44;24.60;35.70
45343;DHT22;31077;50.872;4.352;2022-11-20T00:29:10;24.60;35.80
45343;DHT22;31077;50.872;4.352;2022-11-20T00:31:36;24.60;35.60
45343;DHT22;31077;50.872;4.352;2022-11-20T00:34:02;24.60;35.70
45343;DHT22;31077;50.872;4.352;2022-11-20T00:36:31;24.60;35.60
45343;DHT22;31077;50.872;4.352;2022-11-20T00:38:58;24.60;35.40
45343;DHT22;31077;50.872;4.352;2022-11-20T00:41:26;24.60;35.40
45343;DHT22;31077;50.872;4.352;2022-11-20T00:43:53;24.60;35.40
45343;DHT22;31077;50.872;4.352;2022-11-20T00:46:22;24.60;35.30
45343;DHT22;31077;50.872;4.352;2022-11-20T00:48:48;24.60;35.30
45343;DHT22;31077;50.872;4.352;2022-11-20T00:51:16;24.60;35.30
45343;DHT22;31077;50.872;4.352;2022-11-20T00:53:43;24.60;35.20
45343;DHT22;31077;50.872;4.352;2022-11-20T00:56:15;24.60;35.20
45343;DHT22;31077;50.872;4.352;2022-11-20T00:58:43;24.60;35.20
45343;DHT22;31077;50.872;4.352;2022-11-20T01:01:10;24.60;35.30
45343;DHT22;31077;50.872;4.352;2022-11-20T01:03:39;24.60;35.30
45343;DHT22;31077;50.872;4.352;2022-11-20T01:06:20;24.60;35.30
45343;DHT22;31077;50.872;4.352;2022-11-20T01:08:47;24.60;35.30
45343;DHT22;31077;50.872;4.352;2022-11-20T01:11:15;24.60;35.20
45343;DHT22;31077;50.872;4.352;2022-11-20T01:13:42;24.60;35.20
45343;DHT22;31077;50.872;4.352;2022-11-20T01:16:15;24.70;35.20
45343;DHT22;31077;50.872;4.352;2022-11-20T01:18:42;24.70;35.30
45343;DHT22;31077;50.872;4.352;2022-11-20T01:21:12;24.70;35.20
45343;DHT22;31077;50.872;4.352;2022-11-20T01:23:40;24.70;35.10
45343;DHT22;31077;50.872;4.352;2022-11-20T01:26:16;24.70;35.10
45343;DHT22;31077;50.872;4.352;2022-11-20T01:28:43;24.60;35.10
45343;DHT22;31077;50.872;4.352;2022-11-20T01:31:29;24.70;35.20
45343;DHT22;31077;50.872;4.352;2022-11-20T01:33:58;24.70;35.20
45343;DHT22;31077;50.872;4.352;2022-11-20T01:36:27;24.70;35.20
45343;DHT22;31077;50.872;4.352;2022-11-20T01:38:56;24.70;35.20
45343;DHT22;31077;50.872;4.352;2022-11-20T01:41:23;24.70;35.50
45343;DHT22;31077;50.872;4.352;2022-11-20T01:44:10;24.70;35.40
45343;DHT22;31077;50.872;4.352;2022-11-20T01:46:38;24.70;35.40
45343;DHT22;31077;50.872;4.352;2022-11-20T01:49:15;24.70;35.50
45343;DHT22;31077;50.872;4.352;2022-11-20T01:51:45;24.70;35.50
45343;DHT22;31077;50.872;4.352;2022-11-20T01:54:21;24.70;35.60
45343;DHT22;31077;50.872;4.352;2022-11-20T01:56:51;24.70;35.60
45343;DHT22;31077;50.872;4.352;2022-11-20T01:59:19;24.70;35.50
45343;DHT22;31077;50.872;4.352;2022-11-20T02:01:46;24.70;35.60
45343;DHT22;31077;50.872;4.352;2022-11-20T02:04:13;24.70;35.50
45343;DHT22;31077;50.872;4.352;2022-11-20T02:06:51;24.70;35.50
45343;DHT22;31077;50.872;4.352;2022-11-20T02:09:19;24.70;35.60
45343;DHT22;31077;50.872;4.352;2022-11-20T02:11:45;24.70;35.60
45343;DHT22;31077;50.872;4.352;2022-11-20T02:14:10;24.70;35.50
45343;DHT22;31077;50.872;4.352;2022-11-20T02:16:40;24.70;35.50
45343;DHT22;31077;50.872;4.352;2022-11-20T02:19:27;24.70;35.50
45343;DHT22;31077;50.872;4.352;2022-11-20T02:24:21;24.70;35.40
45343;DHT22;31077;50.872;4.352;2022-11-20T02:26:53;24.70;35.30
45343;DHT22;31077;50.872;4.352;2022-11-20T02:29:27;24.70;35.30
45343;DHT22;31077;50.872;4.352;2022-11-20T02:31:55;24.70;35.30
45343;DHT22;31077;50.872;4.352;2022-11-20T02:34:22;24.70;35.30
45343;DHT22;31077;50.872;4.352;2022-11-20T02:36:49;24.70;35.30
45343;DHT22;31077;50.872;4.352;2022-11-20T02:39:15;24.70;35.20
45343;DHT22;31077;50.872;4.352;2022-11-20T02:41:42;24.80;35.20
45343;DHT22;31077;50.872;4.352;2022-11-20T02:44:08;24.70;35.10
45343;DHT22;31077;50.872;4.352;2022-11-20T02:46:34;24.70;35.10
45343;DHT22;31077;50.872;4.352;2022-11-20T02:49:02;24.70;35.10
45343;DHT22;31077;50.872;4.352;2022-11-20T02:51:28;24.70;35.20
45343;DHT22;31077;50.872;4.352;2022-11-20T02:53:53;24.70;35.20
45343;DHT22;31077;50.872;4.352;2022-11-20T02:56:20;24.70;35.20
45343;DHT22;31077;50.872;4.352;2022-11-20T02:58:45;24.70;35.10
45343;DHT22;31077;50.872;4.352;2022-11-20T03:01:11;24.70;35.10
45343;DHT22;31077;50.872;4.352;2022-11-20T03:03:37;24.70;35.20
45343;DHT22;31077;50.872;4.352;2022-11-20T03:06:03;24.70;35.20
45343;DHT22;31077;50.872;4.352;2022-11-20T03:08:29;24.70;35.30
45343;DHT22;31077;50.872;4.352;2022-11-20T03:10:54;24.70;35.20
45343;DHT22;31077;50.872;4.352;2022-11-20T03:13:20;24.70;35.20
45343;DHT22;31077;50.872;4.352;2022-11-20T03:15:46;24.70;35.20
45343;DHT22;31077;50.872;4.352;2022-11-20T03:18:12;24.70;35.20
45343;DHT22;31077;50.872;4.352;2022-11-20T03:20:39;24.70;35.20
45343;DHT22;31077;50.872;4.352;2022-11-20T03:23:05;24.70;35.30
45343;DHT22;31077;50.872;4.352;2022-11-20T03:25:31;24.70;35.30
45343;DHT22;31077;50.872;4.352;2022-11-20T03:27:56;24.70;35.20
45343;DHT22;31077;50.872;4.352;2022-11-20T03:30:22;24.70;35.20
45343;DHT22;31077;50.872;4.352;2022-11-20T03:32:48;24.70;35.10
45343;DHT22;31077;50.872;4.352;2022-11-20T03:35:14;24.70;35.20
45343;DHT22;31077;50.872;4.352;2022-11-20T03:37:39;24.70;35.00
45343;DHT22;31077;50.872;4.352;2022-11-20T03:40:06;24.70;34.90
45343;DHT22;31077;50.872;4.352;2022-11-20T03:42:31;24.70;35.10
45343;DHT22;31077;50.872;4.352;2022-11-20T03:45:14;24.70;35.60
45343;DHT22;31077;50.872;4.352;2022-11-20T03:47:41;24.60;35.50
45343;DHT22;31077;50.872;4.352;2022-11-20T03:50:07;24.60;35.70
45343;DHT22;31077;50.872;4.352;2022-11-20T03:52:33;24.60;35.60
45343;DHT22;31077;50.872;4.352;2022-11-20T03:54:59;24.50;35.90
45343;DHT22;31077;50.872;4.352;2022-11-20T03:57:25;24.50;35.90
45343;DHT22;31077;50.872;4.352;2022-11-20T03:59:50;24.50;36.10
45343;DHT22;31077;50.872;4.352;2022-11-20T04:02:16;24.50;36.10
45343;DHT22;31077;50.872;4.352;2022-11-20T04:04:42;24.50;35.90
45343;DHT22;31077;50.872;4.352;2022-11-20T04:07:07;24.50;35.90
45343;DHT22;31077;50.872;4.352;2022-11-20T04:09:33;24.50;36.10
45343;DHT22;31077;50.872;4.352;2022-11-20T04:11:59;24.50;35.90
45343;DHT22;31077;50.872;4.352;2022-11-20T04:14:25;24.50;36.10
45343;DHT22;31077;50.872;4.352;2022-11-20T04:16:50;24.50;35.90
45343;DHT22;31077;50.872;4.352;2022-11-20T04:19:16;24.50;36.20
45343;DHT22;31077;50.872;4.352;2022-11-20T04:21:43;24.50;36.00
45343;DHT22;31077;50.872;4.352;2022-11-20T04:24:09;24.40;36.00
45343;DHT22;31077;50.872;4.352;2022-11-20T04:26:36;24.40;35.70
45343;DHT22;31077;50.872;4.352;2022-11-20T04:29:03;24.40;35.60
45343;DHT22;31077;50.872;4.352;2022-11-20T04:31:30;24.40;35.50
45343;DHT22;31077;50.872;4.352;2022-11-20T04:34:00;24.40;35.50
45343;DHT22;31077;50.872;4.352;2022-11-20T04:36:26;24.40;35.40
45343;DHT22;31077;50.872;4.352;2022-11-20T04:38:57;24.40;35.30
45343;DHT22;31077;50.872;4.352;2022-11-20T04:41:26;24.40;35.30
45343;DHT22;31077;50.872;4.352;2022-11-20T04:43:54;24.40;35.30
45343;DHT22;31077;50.872;4.352;2022-11-20T04:46:31;24.40;35.20
45343;DHT22;31077;50.872;4.352;2022-11-20T04:48:57;24.50;35.20
45343;DHT22;31077;50.872;4.352;2022-11-20T04:51:23;24.40;35.10
45343;DHT22;31077;50.872;4.352;2022-11-20T04:53:49;24.40;35.10
45343;DHT22;31077;50.872;4.352;2022-11-20T04:56:15;24.40;35.10
45343;DHT22;31077;50.872;4.352;2022-11-20T04:58:41;24.40;35.10
45343;DHT22;31077;50.872;4.352;2022-11-20T05:01:18;24.40;35.10
45343;DHT22;31077;50.872;4.352;2022-11-20T05:03:45;24.50;35.20
45343;DHT22;31077;50.872;4.352;2022-11-20T05:06:16;24.40;35.70
45343;DHT22;31077;50.872;4.352;2022-11-20T05:08:43;24.40;35.10
45343;DHT22;31077;50.872;4.352;2022-11-20T05:11:10;24.40;35.00
45343;DHT22;31077;50.872;4.352;2022-11-20T05:13:37;24.50;35.10
45343;DHT22;31077;50.872;4.352;2022-11-20T05:16:04;24.40;35.00
45343;DHT22;31077;50.872;4.352;2022-11-20T05:18:30;24.40;35.00
45343;DHT22;31077;50.872;4.352;2022-11-20T05:20:57;24.40;35.00
45343;DHT22;31077;50.872;4.352;2022-11-20T05:23:24;24.40;35.10
45343;DHT22;31077;50.872;4.352;2022-11-20T05:25:55;24.50;35.10
45343;DHT22;31077;50.872;4.352;2022-11-20T05:28:22;24.40;35.10
45343;DHT22;31077;50.872;4.352;2022-11-20T05:30:49;24.40;35.00
45343;DHT22;31077;50.872;4.352;2022-11-20T05:33:15;24.40;35.00
45343;DHT22;31077;50.872;4.352;2022-11-20T05:35:41;24.40;35.00
45343;DHT22;31077;50.872;4.352;2022-11-20T05:38:07;24.40;35.00
45343;DHT22;31077;50.872;4.352;2022-11-20T05:40:33;24.40;35.00
45343;DHT22;31077;50.872;4.352;2022-11-20T05:43:00;24.40;35.00
45343;DHT22;31077;50.872;4.352;2022-11-20T05:45:26;24.40;35.00
45343;DHT22;31077;50.872;4.352;2022-11-20T05:47:52;24.40;35.10
45343;DHT22;31077;50.872;4.352;2022-11-20T05:50:18;24.40;35.10
45343;DHT22;31077;50.872;4.352;2022-11-20T05:52:44;24.40;35.10
45343;DHT22;31077;50.872;4.352;2022-11-20T05:55:10;24.40;35.10
45343;DHT22;31077;50.872;4.352;2022-11-20T05:57:36;24.40;35.10
45343;DHT22;31077;50.872;4.352;2022-11-20T06:00:03;24.40;35.10
45343;DHT22;31077;50.872;4.352;2022-11-20T06:02:29;24.40;35.10
45343;DHT22;31077;50.872;4.352;2022-11-20T06:04:55;24.40;35.10
45343;DHT22;31077;50.872;4.352;2022-11-20T06:07:21;24.40;35.10
45343;DHT22;31077;50.872;4.352;2022-11-20T06:09:46;24.40;35.20
45343;DHT22;31077;50.872;4.352;2022-11-20T06:12:12;24.40;35.70
45343;DHT22;31077;50.872;4.352;2022-11-20T06:14:38;24.40;35.10
45343;DHT22;31077;50.872;4.352;2022-11-20T06:17:03;24.40;35.10
45343;DHT22;31077;50.872;4.352;2022-11-20T06:19:29;24.40;35.10
45343;DHT22;31077;50.872;4.352;2022-11-20T06:21:55;24.40;35.10
45343;DHT22;31077;50.872;4.352;2022-11-20T06:24:21;24.40;35.10
45343;DHT22;31077;50.872;4.352;2022-11-20T06:26:46;24.40;35.00
45343;DHT22;31077;50.872;4.352;2022-11-20T06:29:12;24.40;35.10
45343;DHT22;31077;50.872;4.352;2022-11-20T06:31:38;24.40;35.20
45343;DHT22;31077;50.872;4.352;2022-11-20T06:34:05;24.40;35.20
45343;DHT22;31077;50.872;4.352;2022-11-20T06:36:31;24.40;35.10
45343;DHT22;31077;50.872;4.352;2022-11-20T06:38:57;24.40;35.20
45343;DHT22;31077;50.872;4.352;2022-11-20T06:41:23;24.40;35.10
45343;DHT22;31077;50.872;4.352;2022-11-20T06:43:50;24.40;35.20
45343;DHT22;31077;50.872;4.352;2022-11-20T06:46:17;24.40;35.20
45343;DHT22;31077;50.872;4.352;2022-11-20T06:48:44;24.40;35.30
45343;DHT22;31077;50.872;4.352;2022-11-20T06:51:10;24.40;35.30
45343;DHT22;31077;50.872;4.352;2022-11-20T06:53:36;24.40;35.20
45343;DHT22;31077;50.872;4.352;2022-11-20T06:56:02;24.40;35.30
45343;DHT22;31077;50.872;4.352;2022-11-20T06:58:30;24.40;35.30
45343;DHT22;31077;50.872;4.352;2022-11-20T07:01:11;24.40;35.30
45343;DHT22;31077;50.872;4.352;2022-11-20T07:03:37;24.40;35.40
45343;DHT22;31077;50.872;4.352;2022-11-20T07:06:03;24.40;35.30
45343;DHT22;31077;50.872;4.352;2022-11-20T07:08:30;24.40;35.40
45343;DHT22;31077;50.872;4.352;2022-11-20T07:11:00;24.30;35.30
45343;DHT22;31077;50.872;4.352;2022-11-20T07:13:27;24.40;35.40
45343;DHT22;31077;50.872;4.352;2022-11-20T07:15:53;24.40;35.40
45343;DHT22;31077;50.872;4.352;2022-11-20T07:18:19;24.40;35.40
45343;DHT22;31077;50.872;4.352;2022-11-20T07:20:45;24.40;35.40
45343;DHT22;31077;50.872;4.352;2022-11-20T07:23:10;24.40;35.40
45343;DHT22;31077;50.872;4.352;2022-11-20T07:25:36;24.40;35.40
45343;DHT22;31077;50.872;4.352;2022-11-20T07:28:02;24.40;35.40
45343;DHT22;31077;50.872;4.352;2022-11-20T07:30:29;24.40;35.40
45343;DHT22;31077;50.872;4.352;2022-11-20T07:32:56;24.40;35.40
45343;DHT22;31077;50.872;4.352;2022-11-20T07:35:23;24.40;35.50
45343;DHT22;31077;50.872;4.352;2022-11-20T07:37:49;24.40;35.50
45343;DHT22;31077;50.872;4.352;2022-11-20T07:40:19;24.40;35.50
45343;DHT22;31077;50.872;4.352;2022-11-20T07:42:52;24.40;35.60
45343;DHT22;31077;50.872;4.352;2022-11-20T07:45:19;24.30;35.50
45343;DHT22;31077;50.872;4.352;2022-11-20T07:47:45;24.40;35.60
45343;DHT22;31077;50.872;4.352;2022-11-20T07:50:11;24.30;35.50
45343;DHT22;31077;50.872;4.352;2022-11-20T07:52:37;24.40;35.60
45343;DHT22;31077;50.872;4.352;2022-11-20T07:55:03;24.40;35.60
45343;DHT22;31077;50.872;4.352;2022-11-20T07:57:29;24.40;35.70
45343;DHT22;31077;50.872;4.352;2022-11-20T07:59:55;24.40;35.70
45343;DHT22;31077;50.872;4.352;2022-11-20T08:02:21;24.40;35.70
45343;DHT22;31077;50.872;4.352;2022-11-20T08:04:46;24.40;35.70
45343;DHT22;31077;50.872;4.352;2022-11-20T08:07:12;24.40;35.80
45343;DHT22;31077;50.872;4.352;2022-11-20T08:09:38;24.40;35.80
45343;DHT22;31077;50.872;4.352;2022-11-20T08:12:04;24.40;35.90
45343;DHT22;31077;50.872;4.352;2022-11-20T08:14:48;24.40;35.90
45343;DHT22;31077;50.872;4.352;2022-11-20T08:17:14;24.40;35.90
45343;DHT22;31077;50.872;4.352;2022-11-20T08:19:40;24.40;35.90
45343;DHT22;31077;50.872;4.352;2022-11-20T08:22:05;24.40;35.90
45343;DHT22;31077;50.872;4.352;2022-11-20T08:24:31;24.30;35.90
45343;DHT22;31077;50.872;4.352;2022-11-20T08:26:58;24.30;36.00
45343;DHT22;31077;50.872;4.352;2022-11-20T08:29:25;24.30;36.00
45343;DHT22;31077;50.872;4.352;2022-11-20T08:31:51;24.40;36.10
45343;DHT22;31077;50.872;4.352;2022-11-20T08:34:17;24.30;36.10
45343;DHT22;31077;50.872;4.352;2022-11-20T08:36:43;24.30;36.20
45343;DHT22;31077;50.872;4.352;2022-11-20T08:39:13;24.30;36.20
45343;DHT22;31077;50.872;4.352;2022-11-20T08:41:39;24.30;36.20
45343;DHT22;31077;50.872;4.352;2022-11-20T08:44:06;24.30;36.20
45343;DHT22;31077;50.872;4.352;2022-11-20T08:46:35;24.30;36.30
45343;DHT22;31077;50.872;4.352;2022-11-20T08:49:06;24.40;36.40
45343;DHT22;31077;50.872;4.352;2022-11-20T08:51:32;24.40;36.50
45343;DHT22;31077;50.872;4.352;2022-11-20T08:53:58;24.40;36.50
45343;DHT22;31077;50.872;4.352;2022-11-20T08:56:24;24.40;36.60
45343;DHT22;31077;50.872;4.352;2022-11-20T08:58:50;24.40;36.60
45343;DHT22;31077;50.872;4.352;2022-11-20T09:01:18;24.40;36.60
45343;DHT22;31077;50.872;4.352;2022-11-20T09:03:44;24.40;36.60
45343;DHT22;31077;50.872;4.352;2022-11-20T09:06:10;24.40;36.60
45343;DHT22;31077;50.872;4.352;2022-11-20T09:08:35;24.40;36.70
45343;DHT22;31077;50.872;4.352;2022-11-20T09:11:02;24.40;36.70
45343;DHT22;31077;50.872;4.352;2022-11-20T09:13:29;24.40;36.70
45343;DHT22;31077;50.872;4.352;2022-11-20T09:15:59;24.30;36.80
45343;DHT22;31077;50.872;4.352;2022-11-20T09:18:26;24.40;36.80
45343;DHT22;31077;50.872;4.352;2022-11-20T09:20:55;24.40;36.90
45343;DHT22;31077;50.872;4.352;2022-11-20T09:23:21;24.40;36.90
45343;DHT22;31077;50.872;4.352;2022-11-20T09:25:47;24.40;36.90
45343;DHT22;31077;50.872;4.352;2022-11-20T09:28:13;24.30;36.90
45343;DHT22;31077;50.872;4.352;2022-11-20T09:30:39;24.40;37.00
45343;DHT22;31077;50.872;4.352;2022-11-20T09:33:05;24.30;37.00
45343;DHT22;31077;50.872;4.352;2022-11-20T09:35:32;24.40;37.10
45343;DHT22;31077;50.872;4.352;2022-11-20T09:37:57;24.40;37.10
45343;DHT22;31077;50.872;4.352;2022-11-20T09:40:27;24.40;37.20
45343;DHT22;31077;50.872;4.352;2022-11-20T09:51:23;24.40;37.30
45343;DHT22;31077;50.872;4.352;2022-11-20T09:54:20;24.40;37.30
45343;DHT22;31077;50.872;4.352;2022-11-20T09:56:56;24.40;37.40
45343;DHT22;31077;50.872;4.352;2022-11-20T09:59:40;24.40;37.40
45343;DHT22;31077;50.872;4.352;2022-11-20T10:04:45;24.40;37.50
45343;DHT22;31077;50.872;4.352;2022-11-20T10:10:03;24.40;37.50
45343;DHT22;31077;50.872;4.352;2022-11-20T10:31:35;24.30;37.80
45343;DHT22;31077;50.872;4.352;2022-11-20T10:34:24;24.40;37.80
45343;DHT22;31077;50.872;4.352;2022-11-20T10:36:55;24.40;37.90
45343;DHT22;31077;50.872;4.352;2022-11-20T10:39:32;24.40;37.90
45343;DHT22;31077;50.872;4.352;2022-11-20T10:42:00;24.40;37.90
45343;DHT22;31077;50.872;4.352;2022-11-20T10:44:28;24.40;37.90
45343;DHT22;31077;50.872;4.352;2022-11-20T10:47:13;24.40;38.00
45343;DHT22;31077;50.872;4.352;2022-11-20T10:49:40;24.40;37.90
45343;DHT22;31077;50.872;4.352;2022-11-20T10:57:54;24.40;38.20
45343;DHT22;31077;50.872;4.352;2022-11-20T11:00:22;24.40;38.20
45343;DHT22;31077;50.872;4.352;2022-11-20T11:02:50;24.40;38.30
45343;DHT22;31077;50.872;4.352;2022-11-20T11:08:09;24.40;38.30
45343;DHT22;31077;50.872;4.352;2022-11-20T11:10:42;24.40;38.20
45343;DHT22;31077;50.872;4.352;2022-11-20T11:13:23;24.40;38.30
45343;DHT22;31077;50.872;4.352;2022-11-20T11:15:49;24.40;38.20
45343;DHT22;31077;50.872;4.352;2022-11-20T11:18:27;24.40;38.40
45343;DHT22;31077;50.872;4.352;2022-11-20T11:20:54;24.40;38.40
45343;DHT22;31077;50.872;4.352;2022-11-20T11:23:41;24.40;38.70
45343;DHT22;31077;50.872;4.352;2022-11-20T11:26:19;24.40;38.70
45343;DHT22;31077;50.872;4.352;2022-11-20T11:28:59;24.40;39.10
45343;DHT22;31077;50.872;4.352;2022-11-20T11:31:30;24.40;39.00
45343;DHT22;31077;50.872;4.352;2022-11-20T11:34:17;24.40;39.00
45343;DHT22;31077;50.872;4.352;2022-11-20T11:36:52;24.40;39.10
45343;DHT22;31077;50.872;4.352;2022-11-20T11:39:20;24.40;39.10
45343;DHT22;31077;50.872;4.352;2022-11-20T11:41:47;24.40;39.10
45343;DHT22;31077;50.872;4.352;2022-11-20T11:44:22;24.40;38.90
45343;DHT22;31077;50.872;4.352;2022-11-20T11:47:25;24.40;39.10
45343;DHT22;31077;50.872;4.352;2022-11-20T11:50:20;24.40;38.90
45343;DHT22;31077;50.872;4.352;2022-11-20T11:55:39;24.40;38.70
45343;DHT22;31077;50.872;4.352;2022-11-20T12:01:30;24.40;38.80
45343;DHT22;31077;50.872;4.352;2022-11-20T12:04:13;24.40;38.70
45343;DHT22;31077;50.872;4.352;2022-11-20T12:06:44;24.40;38.60
45343;DHT22;31077;50.872;4.352;2022-11-20T12:09:11;24.40;38.60
45343;DHT22;31077;50.872;4.352;2022-11-20T12:11:59;24.40;38.80
45343;DHT22;31077;50.872;4.352;2022-11-20T12:14:38;24.40;39.00
45343;DHT22;31077;50.872;4.352;2022-11-20T12:17:05;24.40;38.90
45343;DHT22;31077;50.872;4.352;2022-11-20T12:19:32;24.40;38.90
45343;DHT22;31077;50.872;4.352;2022-11-20T12:30:13;24.40;39.00
45343;DHT22;31077;50.872;4.352;2022-11-20T12:32:50;24.40;39.10
45343;DHT22;31077;50.872;4.352;2022-11-20T12:47:38;24.40;39.10
45343;DHT22;31077;50.872;4.352;2022-11-20T12:52:50;24.40;39.30
45343;DHT22;31077;50.872;4.352;2022-11-20T12:55:40;24.40;39.30
45343;DHT22;31077;50.872;4.352;2022-11-20T13:06:51;24.40;39.50
45343;DHT22;31077;50.872;4.352;2022-11-20T13:09:19;24.40;39.60
45343;DHT22;31077;50.872;4.352;2022-11-20T13:11:48;24.40;39.60
45343;DHT22;31077;50.872;4.352;2022-11-20T13:17:12;24.40;39.70
45343;DHT22;31077;50.872;4.352;2022-11-20T13:19:40;24.00;39.50
45343;DHT22;31077;50.872;4.352;2022-11-20T13:22:08;24.40;39.70
45343;DHT22;31077;50.872;4.352;2022-11-20T13:24:34;24.40;39.80
45343;DHT22;31077;50.872;4.352;2022-11-20T13:29:31;24.40;39.70
45343;DHT22;31077;50.872;4.352;2022-11-20T13:32:14;24.40;39.70
45343;DHT22;31077;50.872;4.352;2022-11-20T13:34:54;24.40;39.70
45343;DHT22;31077;50.872;4.352;2022-11-20T13:37:35;24.40;39.90
45343;DHT22;31077;50.872;4.352;2022-11-20T13:40:22;24.40;39.90
45343;DHT22;31077;50.872;4.352;2022-11-20T13:45:30;24.30;39.80
45343;DHT22;31077;50.872;4.352;2022-11-20T13:47:57;24.40;39.90
45343;DHT22;31077;50.872;4.352;2022-11-20T13:50:49;24.40;39.90
45343;DHT22;31077;50.872;4.352;2022-11-20T13:59:35;24.40;40.00
45343;DHT22;31077;50.872;4.352;2022-11-20T14:02:16;24.40;40.10
45343;DHT22;31077;50.872;4.352;2022-11-20T14:04:47;24.40;40.10
45343;DHT22;31077;50.872;4.352;2022-11-20T14:07:15;24.30;40.10
45343;DHT22;31077;50.872;4.352;2022-11-20T14:09:54;24.30;40.10
45343;DHT22;31077;50.872;4.352;2022-11-20T14:12:29;24.30;40.10
45343;DHT22;31077;50.872;4.352;2022-11-20T14:14:55;24.30;40.40
45343;DHT22;31077;50.872;4.352;2022-11-20T14:17:22;24.30;40.50
45343;DHT22;31077;50.872;4.352;2022-11-20T14:19:50;24.40;40.80
45343;DHT22;31077;50.872;4.352;2022-11-20T14:22:25;24.30;41.00
45343;DHT22;31077;50.872;4.352;2022-11-20T14:27:41;24.40;40.80
45343;DHT22;31077;50.872;4.352;2022-11-20T14:30:18;24.40;40.70
45343;DHT22;31077;50.872;4.352;2022-11-20T14:32:45;24.30;40.80
45343;DHT22;31077;50.872;4.352;2022-11-20T14:35:28;24.40;40.70
45343;DHT22;31077;50.872;4.352;2022-11-20T14:37:54;24.30;40.60
45343;DHT22;31077;50.872;4.352;2022-11-20T14:42:52;24.30;41.20
45343;DHT22;31077;50.872;4.352;2022-11-20T14:45:18;24.40;40.70
45343;DHT22;31077;50.872;4.352;2022-11-20T14:47:44;24.30;40.70
45343;DHT22;31077;50.872;4.352;2022-11-20T14:50:23;24.30;40.90
45343;DHT22;31077;50.872;4.352;2022-11-20T14:52:54;24.30;41.10
45343;DHT22;31077;50.872;4.352;2022-11-20T14:55:37;24.30;41.50
45343;DHT22;31077;50.872;4.352;2022-11-20T14:58:21;24.30;41.80
45343;DHT22;31077;50.872;4.352;2022-11-20T15:01:00;24.30;41.80
45343;DHT22;31077;50.872;4.352;2022-11-20T15:03:33;24.30;42.00
45343;DHT22;31077;50.872;4.352;2022-11-20T15:06:00;24.30;42.10
45343;DHT22;31077;50.872;4.352;2022-11-20T15:08:26;24.40;42.20
45343;DHT22;31077;50.872;4.352;2022-11-20T15:10:53;24.40;42.20
45343;DHT22;31077;50.872;4.352;2022-11-20T15:13:40;24.40;42.20
45343;DHT22;31077;50.872;4.352;2022-11-20T15:16:21;24.40;42.20
45343;DHT22;31077;50.872;4.352;2022-11-20T15:18:47;24.40;42.20
45343;DHT22;31077;50.872;4.352;2022-11-20T15:21:15;24.40;42.20
45343;DHT22;31077;50.872;4.352;2022-11-20T15:23:42;24.40;42.20
45343;DHT22;31077;50.872;4.352;2022-11-20T15:26:09;24.40;42.20
45343;DHT22;31077;50.872;4.352;2022-11-20T15:28:46;24.40;42.20
45343;DHT22;31077;50.872;4.352;2022-11-20T15:31:15;24.40;42.20
45343;DHT22;31077;50.872;4.352;2022-11-20T15:33:41;24.40;42.10
45343;DHT22;31077;50.872;4.352;2022-11-20T15:36:08;24.40;42.10
45343;DHT22;31077;50.872;4.352;2022-11-20T15:38:34;24.40;42.10
45343;DHT22;31077;50.872;4.352;2022-11-20T15:41:00;24.40;42.10
45343;DHT22;31077;50.872;4.352;2022-11-20T15:43:25;24.40;42.10
45343;DHT22;31077;50.872;4.352;2022-11-20T15:46:12;24.40;42.10
45343;DHT22;31077;50.872;4.352;2022-11-20T15:48:44;24.40;42.10
45343;DHT22;31077;50.872;4.352;2022-11-20T15:51:36;24.40;42.10
45343;DHT22;31077;50.872;4.352;2022-11-20T15:54:11;24.40;42.10
45343;DHT22;31077;50.872;4.352;2022-11-20T15:56:37;24.40;42.00
45343;DHT22;31077;50.872;4.352;2022-11-20T15:59:03;24.40;42.00
45343;DHT22;31077;50.872;4.352;2022-11-20T16:01:29;24.40;42.00
45343;DHT22;31077;50.872;4.352;2022-11-20T16:03:54;24.40;42.00
45343;DHT22;31077;50.872;4.352;2022-11-20T16:06:20;24.40;42.00
45343;DHT22;31077;50.872;4.352;2022-11-20T16:08:46;24.40;42.00
45343;DHT22;31077;50.872;4.352;2022-11-20T16:11:16;24.40;42.00
45343;DHT22;31077;50.872;4.352;2022-11-20T16:13:42;24.40;42.00
45343;DHT22;31077;50.872;4.352;2022-11-20T16:16:35;24.40;41.90
45343;DHT22;31077;50.872;4.352;2022-11-20T16:19:02;24.40;42.00
45343;DHT22;31077;50.872;4.352;2022-11-20T16:21:28;24.40;42.10
45343;DHT22;31077;50.872;4.352;2022-11-20T16:24:02;24.40;42.10
45343;DHT22;31077;50.872;4.352;2022-11-20T16:26:28;24.40;42.00
45343;DHT22;31077;50.872;4.352;2022-11-20T16:28:54;24.40;41.90
45343;DHT22;31077;50.872;4.352;2022-11-20T16:31:21;24.40;41.90
45343;DHT22;31077;50.872;4.352;2022-11-20T16:33:58;24.40;41.80
45343;DHT22;31077;50.872;4.352;2022-11-20T16:36:25;24.50;41.80
45343;DHT22;31077;50.872;4.352;2022-11-20T16:38:56;24.50;41.80
45343;DHT22;31077;50.872;4.352;2022-11-20T16:41:22;24.50;41.70
45343;DHT22;31077;50.872;4.352;2022-11-20T16:43:50;24.50;41.60
45343;DHT22;31077;50.872;4.352;2022-11-20T16:46:19;24.50;41.60
45343;DHT22;31077;50.872;4.352;2022-11-20T16:48:51;24.50;41.60
45343;DHT22;31077;50.872;4.352;2022-11-20T16:51:17;24.50;41.50
45343;DHT22;31077;50.872;4.352;2022-11-20T16:53:43;24.50;41.50
45343;DHT22;31077;50.872;4.352;2022-11-20T16:56:13;24.50;41.50
45343;DHT22;31077;50.872;4.352;2022-11-20T16:58:45;24.50;41.50
45343;DHT22;31077;50.872;4.352;2022-11-20T17:01:13;24.50;41.40
45343;DHT22;31077;50.872;4.352;2022-11-20T17:03:40;24.50;41.40
45343;DHT22;31077;50.872;4.352;2022-11-20T17:06:26;24.50;41.40
45343;DHT22;31077;50.872;4.352;2022-11-20T17:08:54;24.50;41.40
45343;DHT22;31077;50.872;4.352;2022-11-20T17:11:20;24.50;41.40
45343;DHT22;31077;50.872;4.352;2022-11-20T17:13:46;24.50;41.30
45343;DHT22;31077;50.872;4.352;2022-11-20T17:16:14;24.50;41.40
45343;DHT22;31077;50.872;4.352;2022-11-20T17:18:40;24.50;41.40
45343;DHT22;31077;50.872;4.352;2022-11-20T17:21:06;24.50;41.40
45343;DHT22;31077;50.872;4.352;2022-11-20T17:23:38;24.50;41.30
45343;DHT22;31077;50.872;4.352;2022-11-20T17:28:31;24.50;41.20